ADDS METAR Data INFO
IDs: Format: Raw Decoded Include TAF

Data at: 1844 UTC 17 Oct 2017

KCFS 171835Z AUTO 24021G26KT 10SM CLR 21/05 A3005 RMK AO2 T02050049
KCFS 171815Z AUTO 23016G24KT 10SM CLR 20/05 A3006 RMK AO2 T02040050
KCFS 171755Z AUTO 23016G25KT 10SM CLR 20/05 A3007 RMK AO2 T02000045 10202 20061
KCFS 171735Z AUTO 23016G24KT 10SM CLR 20/05 A3007 RMK AO2 T01970046
KCFS 171715Z AUTO 22016G27KT 10SM CLR 19/05 A3008 RMK AO2 T01870046
KCFS 171655Z AUTO 23018G22KT 10SM CLR 19/04 A3009 RMK AO2 T01870043
KCFS 171635Z AUTO 23015G26KT 10SM CLR 18/04 A3010 RMK AO2 T01810042
KCFS 171615Z AUTO 24014G24KT 10SM CLR 18/04 A3010 RMK AO2 T01760040
KCFS 171555Z AUTO 22013G18KT 10SM CLR 17/04 A3010 RMK AO2 T01680042
KCFS 171535Z AUTO 21015G21KT 10SM CLR 17/04 A3011 RMK AO2 T01660039
KCFS 171515Z AUTO 20015G20KT 10SM CLR 16/04 A3011 RMK AO2 T01550038
KCFS 171455Z AUTO 21012G25KT 10SM CLR 15/04 A3011 RMK AO2 T01480039
KCFS 171435Z AUTO 21011G16KT 10SM CLR 14/04 A3012 RMK AO2 T01380037
KCFS 171415Z AUTO 20008KT 10SM CLR 13/04 A3013 RMK AO2 T01280039
KCFS 171355Z AUTO 20009KT 10SM CLR 12/04 A3013 RMK AO2 T01160039
KCFS 171335Z AUTO 21008KT 10SM CLR 10/04 A3013 RMK AO2 T01030037
KCFS 171315Z AUTO 20008KT 10SM CLR 09/04 A3013 RMK AO2 T00910036
KCFS 171255Z AUTO 20007KT 10SM CLR 08/04 A3014 RMK AO2 T00810035
KCFS 171235Z AUTO 20009KT 10SM CLR 07/03 A3014 RMK AO2 T00720031
KCFS 171215Z AUTO 19006KT 10SM CLR 07/03 A3015 RMK AO2 T00660029
KCFS 171155Z AUTO 20006KT 10SM CLR 06/03 A3015 RMK AO2 T00600027 10062 20029
KCFS 171135Z AUTO 20006KT 10SM CLR 06/03 A3015 RMK AO2 T00600029
KCFS 171115Z AUTO 20006KT 10SM CLR 06/03 A3015 RMK AO2 T00570028
KCFS 171055Z AUTO 20006KT 10SM CLR 06/03 A3015 RMK AO2 T00580030
KCFS 171035Z AUTO 20006KT 10SM CLR 06/03 A3015 RMK AO2 T00580030
KCFS 171015Z AUTO 20006KT 10SM CLR 05/03 A3015 RMK AO2 T00530027
KCFS 170955Z AUTO 20006KT 10SM CLR 05/03 A3016 RMK AO2 T00530028
KCFS 170934Z AUTO 20005KT 10SM CLR 05/03 A3016 RMK AO2 T00530027
KCFS 170915Z AUTO 20006KT 10SM CLR 06/03 A3016 RMK AO2 T00550028
KCFS 170855Z AUTO 20006KT 10SM CLR 05/03 A3017 RMK AO2 T00510026
KCFS 170834Z AUTO 20005KT 10SM CLR 05/02 A3017 RMK AO2 T00460021
KCFS 170815Z AUTO 21005KT 10SM CLR 04/02 A3018 RMK AO2 T00410019
KCFS 170755Z AUTO 00000KT 10SM CLR 04/02 A3018 RMK AO2 T00380021
KCFS 170735Z AUTO 00000KT 10SM CLR 04/02 A3019 RMK AO2 T00390024
KCFS 170715Z AUTO 00000KT 10SM CLR 04/02 A3019 RMK AO2 T00380022
KCFS 170655Z AUTO 00000KT 10SM CLR 03/02 A3019 RMK AO2 T00290018
KCFS 170635Z AUTO 00000KT 10SM CLR 04/02 A3019 RMK AO2 T00350022
KCFS 170615Z AUTO 00000KT 10SM CLR 04/03 A3019 RMK AO2 T00370025
KCFS 170555Z AUTO 00000KT 10SM CLR 04/03 A3020 RMK AO2 T00410025 10066 20036 401340027
KCFS 170535Z AUTO 00000KT 10SM CLR 04/03 A3020 RMK AO2 T00400025
KCFS 170515Z AUTO 22003KT 10SM CLR 04/03 A3020 RMK AO2 T00410025
KCFS 170455Z AUTO 22003KT 10SM CLR 04/03 A3020 RMK AO2 T00410025
KCFS 170435Z AUTO 22003KT 10SM CLR 04/02 A3020 RMK AO2 T00410023
KCFS 170415Z AUTO 00000KT 10SM CLR 04/02 A3021 RMK AO2 T00420023
KCFS 170355Z AUTO 00000KT 10SM CLR 04/02 A3021 RMK AO2 T00410021
KCFS 170335Z AUTO 00000KT 10SM CLR 05/02 A3020 RMK AO2 T00470022
KCFS 170315Z AUTO 23003KT 10SM CLR 05/02 A3021 RMK AO2 T00500024
KCFS 170255Z AUTO 00000KT 10SM CLR 05/02 A3021 RMK AO2 T00500023
KCFS 170235Z AUTO 22003KT 10SM CLR 05/02 A3021 RMK AO2 T00510024
KCFS 170215Z AUTO 22003KT 10SM CLR 06/02 A3021 RMK AO2 T00550023
KCFS 170155Z AUTO 00000KT 10SM CLR 06/03 A3021 RMK AO2 T00590026
KCFS 170135Z AUTO 00000KT 10SM CLR 05/03 A3021 RMK AO2 T00520030
KCFS 170115Z AUTO 00000KT 10SM CLR 05/03 A3022 RMK AO2 T00530030
KCFS 170055Z AUTO 00000KT 10SM CLR 06/03 A3022 RMK AO2 T00560030
KCFS 170035Z AUTO 00000KT 10SM CLR 05/04 A3022 RMK AO2 T00540035
KCFS 170015Z AUTO 00000KT 10SM SCT050 07/04 A3022 RMK AO2 T00650041
KCFS 162355Z AUTO 00000KT 10SM BKN050 06/04 A3022 RMK AO2 T00630043 10134 20058
KCFS 162335Z AUTO 00000KT 10SM SCT050 06/04 A3022 RMK AO2 T00600037
KCFS 162315Z AUTO 00000KT 10SM CLR 07/04 A3022 RMK AO2 T00680038
KCFS 162255Z AUTO 00000KT 10SM CLR 08/03 A3022 RMK AO2 T00820034
KCFS 162235Z AUTO 00000KT 10SM CLR 10/02 A3022 RMK AO2 T00990016
KCFS 162215Z AUTO 21003KT 10SM CLR 11/01 A3022 RMK AO2 T01130012
KCFS 162155Z AUTO 24004KT 10SM CLR 12/01 A3022 RMK AO2 T01210009
KCFS 162135Z AUTO 23007KT 10SM CLR 13/01 A3022 RMK AO2 T01250008
KCFS 162115Z AUTO 00000KT 10SM SCT050 13/00 A3022 RMK AO2 T01250002
KCFS 162055Z AUTO 21005KT 10SM SCT050 13/01 A3023 RMK AO2 T01270005
KCFS 162035Z AUTO 15006KT 10SM SCT050 SCT075 13/01 A3023 RMK AO2 T01260005
KCFS 162015Z AUTO 22009KT 10SM SCT050 13/00 A3023 RMK AO2 T01310003
KCFS 161955Z AUTO 24003KT 10SM SCT050 SCT055 12/00 A3024 RMK AO2 T01200000
KCFS 161935Z AUTO 27008KT 10SM SCT050 13/01 A3024 RMK AO2 T01290006
KCFS 161915Z AUTO 26006KT 10SM SCT050 12/01 A3024 RMK AO2 T01240008
KCFS 161854Z AUTO 23003G09KT 10SM CLR 12/00 A3025 RMK AO2 T01231003
KCFS 161835Z AUTO 29003KT 10SM CLR 12/00 A3025 RMK AO2 T01221001
KCFS 161814Z AUTO 00000KT 10SM CLR 12/00 A3026 RMK AO2 T01201004
KCFS 161755Z AUTO 21005KT 10SM CLR 12/01 A3026 RMK AO2 T01240006 10124 20027
KCFS 161735Z AUTO 00000KT 10SM CLR 12/00 A3027 RMK AO2 T01161001
KCFS 161714Z AUTO 27005KT 10SM CLR 12/00 A3028 RMK AO2 T01170003
KCFS 161655Z AUTO 00000KT 10SM CLR 10/01 A3028 RMK AO2 T01040005
KCFS 161635Z AUTO 26006KT 10SM CLR 11/01 A3029 RMK AO2 T01070005
KCFS 161614Z AUTO 00000KT 10SM CLR 11/00 A3029 RMK AO2 T01061002
KCFS 161555Z AUTO 00000KT 10SM CLR 10/M02 A3029 RMK AO2 T00981018
KCFS 161535Z AUTO 00000KT 10SM CLR 10/M02 A3029 RMK AO2 T00951020
KCFS 161514Z AUTO 00000KT 10SM CLR 09/M03 A3029 RMK AO2 T00931029
KCFS 161455Z AUTO 36003KT 10SM CLR 09/M01 A3029 RMK AO2 T00931011
KCFS 161435Z AUTO 33004KT 10SM CLR 09/M01 A3028 RMK AO2 T00891006
KCFS 161414Z AUTO 35003KT 10SM SCT110 08/00 A3029 RMK AO2 T00831005
KCFS 161355Z AUTO 00000KT 10SM BKN110 07/00 A3028 RMK AO2 T00721002
KCFS 161335Z AUTO 00000KT 10SM OVC110 08/00 A3028 RMK AO2 T00770001
KCFS 161314Z AUTO 00000KT 10SM BKN100 06/02 A3028 RMK AO2 T00600022
KCFS 161255Z AUTO 00000KT 10SM OVC100 05/03 A3028 RMK AO2 T00490030
KCFS 161235Z AUTO 00000KT 10SM BKN100 03/02 A3027 RMK AO2 T00310020
KCFS 161214Z AUTO 00000KT 10SM SCT110 03/02 A3026 RMK AO2 T00300015
KCFS 161155Z AUTO 00000KT 10SM BKN110 03/02 A3025 RMK AO2 T00320016 10058 20029
KCFS 161135Z AUTO 00000KT 10SM SCT100 OVC120 04/02 A3025 RMK AO2 T00350020
KCFS 161114Z AUTO 00000KT 10SM BKN100 OVC120 06/02 A3024 RMK AO2 T00570016
KCFS 161055Z AUTO 00000KT 10SM BKN100 OVC120 06/02 A3024 RMK AO2 T00560018
KCFS 161035Z AUTO 32003KT 10SM OVC090 06/02 A3023 RMK AO2 T00570016
KCFS 161015Z AUTO 31003KT 10SM OVC090 04/02 A3023 RMK AO2 T00360019
KCFS 160955Z AUTO 00000KT 10SM OVC090 03/01 A3022 RMK AO2 T00300013
KCFS 160935Z AUTO 00000KT 10SM OVC100 05/01 A3021 RMK AO2 T00480013
KCFS 160915Z AUTO 00000KT 10SM BKN110 05/01 A3021 RMK AO2 T00490009
KCFS 160855Z AUTO 31003KT 10SM SCT110 05/01 A3020 RMK AO2 T00450005
KCFS 160835Z AUTO 31004KT 10SM SCT110 05/00 A3020 RMK AO2 T00450000
KCFS 160815Z AUTO 32004KT 10SM BKN110 05/00 A3019 RMK AO2 T00490000
KCFS 160755Z AUTO 33003KT 10SM SCT110 05/00 A3018 RMK AO2 T00450000
KCFS 160735Z AUTO 33004KT 10SM SCT110 05/00 A3018 RMK AO2 T00450002
KCFS 160715Z AUTO 32004KT 10SM CLR 05/01 A3019 RMK AO2 T00460006
KCFS 160655Z AUTO 34003KT 10SM CLR 06/01 A3018 RMK AO2 T00550005